createdAt,value
2022-08-01T00:00:48.240Z,2.80
2022-08-01T00:03:24.308Z,1.83
2022-08-01T00:05:51.650Z,1.88
2022-08-01T00:08:18.940Z,1.98
2022-08-01T00:10:46.298Z,1.70
2022-08-01T00:13:13.611Z,1.90
2022-08-01T00:15:40.938Z,1.77
2022-08-01T00:18:19.082Z,1.60
2022-08-01T00:20:46.499Z,1.70
2022-08-01T00:23:13.870Z,1.40
2022-08-01T00:25:41.169Z,1.40
2022-08-01T00:28:09.716Z,1.60
2022-08-01T00:30:37.562Z,1.30
2022-08-01T00:33:04.945Z,1.50
2022-08-01T00:35:32.237Z,1.40
2022-08-01T00:37:59.724Z,1.55
2022-08-01T00:40:27.026Z,1.65
2022-08-01T00:42:54.335Z,1.45
2022-08-01T00:45:21.658Z,1.30
2022-08-01T00:47:48.948Z,1.50
2022-08-01T00:50:22.844Z,1.38
2022-08-01T00:52:52.695Z,1.60
2022-08-01T00:55:20.919Z,1.42
2022-08-01T00:58:04.784Z,1.50
2022-08-01T01:00:34.842Z,1.40
2022-08-01T01:03:19.825Z,1.50
2022-08-01T01:06:02.106Z,1.50
2022-08-01T01:08:39.086Z,2.08
2022-08-01T01:11:15.877Z,2.30
2022-08-01T01:13:50.834Z,2.13
2022-08-01T01:16:21.111Z,1.75
2022-08-01T01:18:56.287Z,1.83
2022-08-01T01:21:24.936Z,2.57
2022-08-01T01:24:30.322Z,2.30
2022-08-01T01:27:15.690Z,2.25
2022-08-01T01:29:59.675Z,1.88
2022-08-01T01:32:36.428Z,2.28
2022-08-01T01:35:08.791Z,2.93
2022-08-01T01:37:39.353Z,2.13
2022-08-01T01:40:08.732Z,2.67
2022-08-01T01:42:37.435Z,2.53
2022-08-01T01:45:06.499Z,2.22
2022-08-01T01:47:35.252Z,2.38
2022-08-01T01:50:03.562Z,2.10
2022-08-01T01:52:32.877Z,2.15
2022-08-01T01:55:01.257Z,2.40
2022-08-01T01:57:31.133Z,2.00
2022-08-01T01:59:59.498Z,2.73
2022-08-01T02:02:28.273Z,1.90
2022-08-01T02:04:56.519Z,1.60
2022-08-01T02:07:26.905Z,1.85
2022-08-01T02:09:56.531Z,1.30
2022-08-01T02:12:33.044Z,1.73
2022-08-01T02:15:02.383Z,1.58
2022-08-01T02:17:30.713Z,1.60
2022-08-01T02:19:58.568Z,1.53
2022-08-01T02:22:31.975Z,1.52
2022-08-01T02:25:23.677Z,1.60
2022-08-01T02:28:16.114Z,1.50
2022-08-01T02:30:47.077Z,1.50
2022-08-01T02:33:23.951Z,1.40
2022-08-01T02:36:29.705Z,1.30
2022-08-01T02:38:48.289Z,1.30
2022-08-01T02:41:25.801Z,1.48
2022-08-01T02:43:57.264Z,2.15
2022-08-01T02:46:30.761Z,1.50
2022-08-01T02:49:01.912Z,1.40
2022-08-01T02:51:32.156Z,1.50
2022-08-01T02:54:02.531Z,1.60
2022-08-01T02:56:35.916Z,1.67
2022-08-01T02:59:15.956Z,1.45
2022-08-01T03:01:47.662Z,1.50
2022-08-01T03:04:18.871Z,1.67
2022-08-01T03:06:47.962Z,1.63
2022-08-01T03:09:16.997Z,1.90
2022-08-01T03:11:46.282Z,2.00
2022-08-01T03:14:15.403Z,2.80
2022-08-01T03:16:45.688Z,2.30
2022-08-01T03:19:14.381Z,1.92
2022-08-01T03:21:43.614Z,2.08
2022-08-01T03:24:12.451Z,2.20
2022-08-01T03:26:40.954Z,1.67
2022-08-01T03:29:13.439Z,1.50
2022-08-01T03:31:44.606Z,1.42
2022-08-01T03:34:12.034Z,1.67
2022-08-01T03:37:04.749Z,1.40
2022-08-01T03:39:37.051Z,1.60
2022-08-01T03:42:13.506Z,1.50
2022-08-01T03:44:42.346Z,1.50
2022-08-01T03:47:11.074Z,1.48
2022-08-01T03:49:48.225Z,1.47
2022-08-01T03:52:16.268Z,1.50
2022-08-01T03:54:51.002Z,1.50
2022-08-01T03:57:35.481Z,2.38
2022-08-01T04:00:10.181Z,2.10
2022-08-01T04:02:38.417Z,1.85
2022-08-01T04:05:06.490Z,2.05
2022-08-01T04:07:40.200Z,1.70
2022-08-01T04:10:08.053Z,2.22
2022-08-01T04:12:35.977Z,1.67
2022-08-01T04:15:04.414Z,1.53
2022-08-01T04:17:31.768Z,1.80
2022-08-01T04:19:59.195Z,2.03
2022-08-01T04:22:37.278Z,1.65
2022-08-01T04:25:12.184Z,2.10
2022-08-01T04:27:50.766Z,1.65
2022-08-01T04:30:25.592Z,2.00
2022-08-01T04:32:56.240Z,2.10
2022-08-01T04:36:03.841Z,1.60
2022-08-01T04:38:22.089Z,2.35
2022-08-01T04:40:53.160Z,1.75
2022-08-01T04:43:20.899Z,2.15
2022-08-01T04:45:48.823Z,2.15
2022-08-01T04:48:20.424Z,2.00
2022-08-01T04:50:50.829Z,2.13
2022-08-01T04:53:23.134Z,2.30
2022-08-01T04:55:50.813Z,2.30
2022-08-01T04:58:19.012Z,3.30
2022-08-01T05:00:49.599Z,2.30
2022-08-01T05:03:17.015Z,2.10
2022-08-01T05:05:44.403Z,1.75
2022-08-01T05:08:11.843Z,2.35
2022-08-01T05:10:39.277Z,1.70
2022-08-01T05:13:07.602Z,3.15
2022-08-01T05:15:37.743Z,2.80
2022-08-01T05:18:05.531Z,2.50
2022-08-01T05:20:35.205Z,1.83
2022-08-01T05:23:03.119Z,1.63
2022-08-01T05:25:57.195Z,1.98
2022-08-01T05:28:19.080Z,2.20
2022-08-01T05:30:46.841Z,2.53
2022-08-01T05:33:14.178Z,2.35
2022-08-01T05:35:47.964Z,2.40
2022-08-01T05:38:17.085Z,2.42
2022-08-01T05:40:44.504Z,2.00
2022-08-01T05:43:12.006Z,1.48
2022-08-01T05:45:39.434Z,1.70
2022-08-01T05:48:07.086Z,1.52
2022-08-01T05:50:34.823Z,1.70
2022-08-01T05:53:02.191Z,1.55
2022-08-01T05:55:29.767Z,1.70
2022-08-01T05:57:57.192Z,1.40
2022-08-01T06:00:24.698Z,1.60
2022-08-01T06:02:52.131Z,1.30
2022-08-01T06:05:19.551Z,1.58
2022-08-01T06:07:46.896Z,1.40
2022-08-01T06:10:14.244Z,1.40
2022-08-01T06:12:41.754Z,1.38
2022-08-01T06:15:10.239Z,1.42
2022-08-01T06:17:37.568Z,1.50
2022-08-01T06:20:07.169Z,1.40
2022-08-01T06:22:34.629Z,1.50
2022-08-01T06:25:02.057Z,1.50
2022-08-01T06:27:29.411Z,2.10
2022-08-01T06:29:57.624Z,1.55
2022-08-01T06:32:35.711Z,1.98
2022-08-01T06:35:03.198Z,2.25
2022-08-01T06:37:31.631Z,2.10
2022-08-01T06:40:14.712Z,1.95
2022-08-01T06:42:45.158Z,1.70
2022-08-01T06:45:14.271Z,2.15
2022-08-01T06:47:44.814Z,2.08
2022-08-01T06:50:16.152Z,1.92
2022-08-01T06:52:45.579Z,1.98
2022-08-01T06:55:13.220Z,3.47
2022-08-01T06:57:48.523Z,2.75
2022-08-01T07:00:17.350Z,2.65
2022-08-01T07:02:44.703Z,2.95
2022-08-01T07:05:12.121Z,5.57
2022-08-01T07:07:39.697Z,2.85
2022-08-01T07:10:07.643Z,3.97
2022-08-01T07:12:37.516Z,2.25
2022-08-01T07:15:12.251Z,2.97
2022-08-01T07:17:41.153Z,2.83
2022-08-01T07:20:11.931Z,2.60
2022-08-01T07:22:41.520Z,2.50
2022-08-01T07:25:09.195Z,2.72
2022-08-01T07:27:37.087Z,2.60
2022-08-01T07:30:06.025Z,2.23
2022-08-01T07:32:34.775Z,2.65
2022-08-01T07:35:03.334Z,2.90
2022-08-01T07:37:48.075Z,3.25
2022-08-01T07:40:18.333Z,2.55
2022-08-01T07:42:46.122Z,3.00
2022-08-01T07:45:14.577Z,2.90
2022-08-01T07:47:41.992Z,4.47
2022-08-01T07:50:09.843Z,2.80
2022-08-01T07:52:37.228Z,2.60
2022-08-01T07:55:05.101Z,3.50
2022-08-01T07:57:32.508Z,3.30
2022-08-01T07:59:59.817Z,4.00
2022-08-01T08:02:27.656Z,3.47
2022-08-01T08:04:54.981Z,2.90
2022-08-01T08:07:22.277Z,3.93
2022-08-01T08:09:51.250Z,2.93
2022-08-01T08:12:18.947Z,3.03
2022-08-01T08:14:56.485Z,2.40
2022-08-01T08:17:25.366Z,2.13
2022-08-01T08:19:52.666Z,2.15
2022-08-01T08:22:20.018Z,1.80
2022-08-01T08:24:47.318Z,2.80
2022-08-01T08:27:15.661Z,2.10
2022-08-01T08:29:43.040Z,1.90
2022-08-01T08:32:10.962Z,1.92
2022-08-01T08:34:38.502Z,1.70
2022-08-01T08:37:05.887Z,2.03
2022-08-01T08:39:41.863Z,1.88
2022-08-01T08:42:13.329Z,2.00
2022-08-01T08:44:50.488Z,2.00
2022-08-01T08:47:20.783Z,1.63
2022-08-01T08:49:50.588Z,1.40
2022-08-01T08:52:20.688Z,2.03
2022-08-01T08:54:49.662Z,1.57
2022-08-01T08:57:19.335Z,1.50
2022-08-01T08:59:47.549Z,1.75
2022-08-01T09:02:15.250Z,3.42
2022-08-01T09:04:42.886Z,1.90
2022-08-01T09:07:12.115Z,1.80
2022-08-01T09:09:41.881Z,1.98
2022-08-01T09:12:10.320Z,2.10
2022-08-01T09:14:47.140Z,2.38
2022-08-01T09:17:15.080Z,3.67
2022-08-01T09:19:43.657Z,3.13
2022-08-01T09:22:14.063Z,3.97
2022-08-01T09:24:42.194Z,3.17
2022-08-01T09:27:27.136Z,2.40
2022-08-01T09:30:01.397Z,1.65
2022-08-01T09:32:35.792Z,2.70
2022-08-01T09:35:43.351Z,2.60
2022-08-01T09:38:22.179Z,1.92
2022-08-01T09:40:54.864Z,2.13
2022-08-01T09:43:31.570Z,1.80
2022-08-01T09:46:00.925Z,1.40
2022-08-01T09:48:30.219Z,1.60
2022-08-01T09:51:09.264Z,2.10
2022-08-01T09:53:54.716Z,1.73
2022-08-01T09:56:23.782Z,1.40
2022-08-01T09:58:58.954Z,1.45
2022-08-01T10:01:36.243Z,1.40
2022-08-01T10:04:19.757Z,1.27
2022-08-01T10:06:55.456Z,1.25
2022-08-01T10:09:40.190Z,1.50
2022-08-01T10:12:15.043Z,1.40
2022-08-01T10:14:46.797Z,1.30
2022-08-01T10:17:19.952Z,1.20
2022-08-01T10:19:51.516Z,1.20
2022-08-01T10:22:20.491Z,1.10
2022-08-01T10:24:49.731Z,1.33
2022-08-01T10:27:24.256Z,1.00
2022-08-01T10:30:19.884Z,1.27
2022-08-01T10:32:54.805Z,1.37
2022-08-01T10:35:47.480Z,1.20
2022-08-01T10:38:13.729Z,1.17
2022-08-01T10:40:44.858Z,1.20
2022-08-01T10:43:12.811Z,1.15
2022-08-01T10:45:42.961Z,1.30
2022-08-01T10:48:23.414Z,1.20
2022-08-01T10:50:55.115Z,1.35
2022-08-01T10:53:31.515Z,1.20
2022-08-01T10:56:14.972Z,1.33
2022-08-01T10:58:45.337Z,1.30
2022-08-01T11:01:20.568Z,1.20
2022-08-01T11:04:04.317Z,1.25
2022-08-01T11:06:34.716Z,1.27
2022-08-01T11:09:06.168Z,1.27
2022-08-01T11:12:01.125Z,1.30
2022-08-01T11:14:46.730Z,1.10
2022-08-01T11:17:37.926Z,1.50
2022-08-01T11:20:14.512Z,1.20
2022-08-01T11:23:04.774Z,1.13
2022-08-01T11:26:06.607Z,6.07
2022-08-01T11:28:34.750Z,2.13
2022-08-01T11:31:11.614Z,2.53
2022-08-01T11:33:48.813Z,2.60
2022-08-01T11:36:17.035Z,2.53
2022-08-01T11:38:48.489Z,2.72
2022-08-01T11:41:23.624Z,2.88
2022-08-01T11:44:21.222Z,2.72
2022-08-01T11:47:09.305Z,2.33
2022-08-01T11:49:55.895Z,2.47
2022-08-01T11:52:30.481Z,1.30
2022-08-01T11:55:10.206Z,1.70
2022-08-01T11:57:39.765Z,2.70
2022-08-01T12:00:19.188Z,3.00
2022-08-01T12:03:04.471Z,1.30
2022-08-01T12:05:34.825Z,1.70
2022-08-01T12:08:02.692Z,1.70
2022-08-01T12:10:49.578Z,1.45
2022-08-01T12:13:19.092Z,2.25
2022-08-01T12:15:47.345Z,1.90
2022-08-01T12:18:14.991Z,1.27
2022-08-01T12:20:55.983Z,1.65
2022-08-01T12:23:24.599Z,1.60
2022-08-01T12:25:54.864Z,1.55
2022-08-01T12:28:22.539Z,1.33
2022-08-01T12:30:50.585Z,1.83
2022-08-01T12:33:20.010Z,1.25
2022-08-01T12:35:48.357Z,1.17
2022-08-01T12:38:18.629Z,1.10
2022-08-01T12:40:53.241Z,1.30
2022-08-01T12:43:29.391Z,1.05
2022-08-01T12:46:04.917Z,1.17
2022-08-01T12:48:33.347Z,1.08
2022-08-01T12:51:04.262Z,1.10
2022-08-01T12:53:40.411Z,1.17
2022-08-01T12:56:17.275Z,1.10
2022-08-01T12:58:46.467Z,0.90
2022-08-01T13:01:15.250Z,1.00
2022-08-01T13:03:58.548Z,1.70
2022-08-01T13:06:31.041Z,1.90
2022-08-01T13:09:19.069Z,2.38
2022-08-01T13:11:56.264Z,1.90
2022-08-01T13:14:31.663Z,2.40
2022-08-01T13:16:59.341Z,2.92
2022-08-01T13:19:46.198Z,2.42
2022-08-01T13:22:13.875Z,1.80
2022-08-01T13:24:42.981Z,1.80
2022-08-01T13:27:24.474Z,3.30
2022-08-01T13:29:53.955Z,2.30
2022-08-01T13:32:28.847Z,1.83
2022-08-01T13:35:09.749Z,1.38
2022-08-01T13:37:38.720Z,1.73
2022-08-01T13:40:08.281Z,1.45
2022-08-01T13:42:36.228Z,1.30
2022-08-01T13:45:14.499Z,1.40
2022-08-01T13:48:11.932Z,1.88
2022-08-01T13:50:34.195Z,1.58
2022-08-01T13:53:03.325Z,1.33
2022-08-01T13:55:34.881Z,1.30
2022-08-01T13:58:04.124Z,1.23
2022-08-01T14:00:31.796Z,1.33
2022-08-01T14:03:00.457Z,1.50
2022-08-01T14:05:27.894Z,1.33
2022-08-01T14:07:56.611Z,1.67
2022-08-01T14:10:25.845Z,2.60
2022-08-01T14:12:53.237Z,2.33
2022-08-01T14:15:37.579Z,2.05
2022-08-01T14:18:10.810Z,1.45
2022-08-01T14:20:40.890Z,2.17
2022-08-01T14:23:09.638Z,2.85
2022-08-01T14:26:04.160Z,1.90
2022-08-01T14:28:29.813Z,2.22
2022-08-01T14:31:00.824Z,1.70
2022-08-01T14:33:28.750Z,2.25
2022-08-01T14:36:05.853Z,1.65
2022-08-01T14:38:46.501Z,1.70
2022-08-01T14:41:15.568Z,1.60
2022-08-01T14:43:43.186Z,2.58
2022-08-01T14:46:11.081Z,3.92
2022-08-01T14:48:38.592Z,6.37
2022-08-01T14:51:08.117Z,9.52
2022-08-01T14:53:37.419Z,7.93
2022-08-01T14:56:05.590Z,8.38
2022-08-01T14:58:33.682Z,8.35
2022-08-01T15:01:01.662Z,6.70
2022-08-01T15:03:29.087Z,7.43
2022-08-01T15:05:56.415Z,5.82
2022-08-01T15:08:24.454Z,5.05
2022-08-01T15:10:52.504Z,5.43
2022-08-01T15:13:20.684Z,6.20
2022-08-01T15:15:48.041Z,6.20
2022-08-01T15:18:15.524Z,4.18
2022-08-01T15:20:43.067Z,4.32
2022-08-01T15:23:10.422Z,4.25
2022-08-01T15:25:41.605Z,3.70
2022-08-01T15:28:11.124Z,2.55
2022-08-01T15:30:39.122Z,3.15
2022-08-01T15:33:07.258Z,2.30
2022-08-01T15:35:34.798Z,3.30
2022-08-01T15:38:02.317Z,2.10
2022-08-01T15:40:29.751Z,2.93
2022-08-01T15:42:57.129Z,2.67
2022-08-01T15:48:12.061Z,3.40
2022-08-01T15:50:39.501Z,3.20
2022-08-01T15:53:07.533Z,2.70
2022-08-01T15:55:39.831Z,3.70
2022-08-01T15:58:08.141Z,3.60
2022-08-01T16:00:39.381Z,3.83
2022-08-01T16:03:10.571Z,3.15
2022-08-01T16:05:43.464Z,2.55
2022-08-01T16:08:14.809Z,2.90
2022-08-01T16:10:42.749Z,3.07
2022-08-01T16:13:10.330Z,2.38
2022-08-01T16:15:39.455Z,2.90
2022-08-01T16:18:09.608Z,3.08
2022-08-01T16:20:42.847Z,3.20
2022-08-01T16:23:12.765Z,3.53
2022-08-01T16:25:41.783Z,4.20
2022-08-01T16:28:09.956Z,3.80
2022-08-01T16:30:43.336Z,2.33
2022-08-01T16:33:40.189Z,6.65
2022-08-01T16:36:05.992Z,7.13
2022-08-01T16:38:33.644Z,7.23
2022-08-01T16:41:01.528Z,7.60
2022-08-01T16:43:29.890Z,6.95
2022-08-01T16:45:57.605Z,2.63
2022-08-01T16:48:25.837Z,3.07
2022-08-01T16:50:54.026Z,2.40
2022-08-01T16:53:30.211Z,2.30
2022-08-01T16:55:58.322Z,2.45
2022-08-01T16:58:27.551Z,3.17
2022-08-01T17:01:59.776Z,4.80
2022-08-01T17:03:53.097Z,3.20
2022-08-01T17:06:22.615Z,1.90
2022-08-01T17:08:50.659Z,2.55
2022-08-01T17:11:18.532Z,2.60
2022-08-01T17:13:46.259Z,2.80
2022-08-01T17:16:13.763Z,3.45
2022-08-01T17:18:41.258Z,3.25
2022-08-01T17:21:08.673Z,4.10
2022-08-01T17:23:36.006Z,3.05
2022-08-01T17:26:03.492Z,3.50
2022-08-01T17:28:30.801Z,2.78
2022-08-01T17:30:59.036Z,2.23
2022-08-01T17:33:44.616Z,2.27
2022-08-01T17:36:15.199Z,1.60
2022-08-01T17:38:42.541Z,1.30
2022-08-01T17:41:10.474Z,2.00
2022-08-01T17:43:37.764Z,2.25
2022-08-01T17:46:05.086Z,2.25
2022-08-01T17:48:32.387Z,1.87
2022-08-01T17:50:59.687Z,1.67
2022-08-01T17:53:26.989Z,1.63
2022-08-01T17:55:57.953Z,2.20
2022-08-01T17:58:48.766Z,1.52
2022-08-01T18:01:16.823Z,1.40
2022-08-01T18:03:44.495Z,1.75
2022-08-01T18:06:14.288Z,1.40
2022-08-01T18:08:47.706Z,1.30
2022-08-01T18:11:16.420Z,1.77
2022-08-01T18:13:45.855Z,1.42
2022-08-01T18:16:16.343Z,1.25
2022-08-01T18:18:44.046Z,1.27
2022-08-01T18:21:12.262Z,1.48
2022-08-01T18:23:39.593Z,1.50
2022-08-01T18:26:08.718Z,1.50
2022-08-01T18:28:46.538Z,1.10
2022-08-01T18:31:16.969Z,4.95
2022-08-01T18:33:45.025Z,4.40
2022-08-01T18:36:28.298Z,4.30
2022-08-01T18:39:05.458Z,3.45
2022-08-01T18:41:34.974Z,3.10
2022-08-01T18:44:04.245Z,2.75
2022-08-01T18:46:38.455Z,2.40
2022-08-01T18:49:07.339Z,2.28
2022-08-01T18:51:36.187Z,2.65
2022-08-01T18:54:05.299Z,2.57
2022-08-01T18:56:32.947Z,1.98
2022-08-01T18:59:00.244Z,1.65
2022-08-01T19:01:27.582Z,1.58
2022-08-01T19:03:54.986Z,1.83
2022-08-01T19:06:23.125Z,3.42
2022-08-01T19:08:53.304Z,1.98
2022-08-01T19:11:23.275Z,1.85
2022-08-01T19:13:50.618Z,2.87
2022-08-01T19:16:18.147Z,2.40
2022-08-01T19:18:46.346Z,1.70
2022-08-01T19:21:13.689Z,1.63
2022-08-01T19:23:59.638Z,2.00
2022-08-01T19:26:27.949Z,1.30
2022-08-01T19:29:01.304Z,1.02
2022-08-01T19:31:29.465Z,1.05
2022-08-01T19:33:57.799Z,1.05
2022-08-01T19:36:25.300Z,1.10
2022-08-01T19:38:53.087Z,1.23
2022-08-01T19:41:20.438Z,1.20
2022-08-01T19:43:48.089Z,0.90
2022-08-01T19:46:17.976Z,1.20
2022-08-01T19:48:51.410Z,0.90
2022-08-01T19:51:22.234Z,1.08
2022-08-01T19:53:55.256Z,1.10
2022-08-01T19:56:26.626Z,1.10
2022-08-01T19:58:59.504Z,1.30
2022-08-01T20:01:27.939Z,1.20
2022-08-01T20:03:57.039Z,1.45
2022-08-01T20:06:26.884Z,0.90
2022-08-01T20:08:55.073Z,1.20
2022-08-01T20:11:23.884Z,1.05
2022-08-01T20:13:51.427Z,1.10
2022-08-01T20:16:18.907Z,1.00
2022-08-01T20:18:46.225Z,1.20
2022-08-01T20:21:14.608Z,1.10
2022-08-01T20:23:44.643Z,1.08
2022-08-01T20:26:14.614Z,1.02
2022-08-01T20:28:46.768Z,1.00
2022-08-01T20:31:16.406Z,1.10
2022-08-01T20:33:47.748Z,1.00
2022-08-01T20:36:24.923Z,1.20
2022-08-01T20:38:57.661Z,1.30
2022-08-01T20:41:27.811Z,1.00
2022-08-01T20:43:56.740Z,1.08
2022-08-01T20:46:27.587Z,1.20
2022-08-01T20:48:58.555Z,0.98
2022-08-01T20:51:29.741Z,1.10
2022-08-01T20:53:58.004Z,1.00
2022-08-01T20:56:52.943Z,1.08
2022-08-01T20:59:55.885Z,1.83
2022-08-01T21:02:54.627Z,2.10
2022-08-01T21:05:30.352Z,2.70
2022-08-01T21:08:22.295Z,2.13
2022-08-01T21:10:56.240Z,3.22
2022-08-01T21:13:40.919Z,3.97
2022-08-01T21:16:24.337Z,1.83
2022-08-01T21:21:59.719Z,1.90
2022-08-01T21:24:34.342Z,3.05
2022-08-01T21:27:03.378Z,1.83
2022-08-01T21:29:33.012Z,2.40
2022-08-01T21:32:12.007Z,1.90
2022-08-01T21:34:39.927Z,2.13
2022-08-01T21:37:08.847Z,1.67
2022-08-01T21:39:37.747Z,2.00
2022-08-01T21:42:13.951Z,1.35
2022-08-01T21:44:46.953Z,1.25
2022-08-01T21:47:17.736Z,1.20
2022-08-01T21:49:45.131Z,1.30
2022-08-01T21:52:22.400Z,2.58
2022-08-01T21:55:10.998Z,2.30
2022-08-01T21:57:58.585Z,1.60
2022-08-01T22:00:26.462Z,1.80
2022-08-01T22:03:19.831Z,2.60
2022-08-01T22:05:51.335Z,3.75
2022-08-01T22:08:33.559Z,2.53
2022-08-01T22:11:07.554Z,2.85
2022-08-01T22:13:35.983Z,2.25
2022-08-01T22:16:05.375Z,1.53
2022-08-01T22:18:33.991Z,1.75
2022-08-01T22:21:02.658Z,1.85
2022-08-01T22:23:34.582Z,4.22
2022-08-01T22:26:05.200Z,2.58
2022-08-01T22:28:34.698Z,1.40
2022-08-01T22:31:02.761Z,1.80
2022-08-01T22:33:30.847Z,1.73
2022-08-01T22:35:59.423Z,1.48
2022-08-01T22:38:27.371Z,1.45
2022-08-01T22:41:06.041Z,1.30
2022-08-01T22:43:57.602Z,1.60
2022-08-01T22:46:48.619Z,1.40
2022-08-01T22:49:22.674Z,1.77
2022-08-01T22:51:54.821Z,1.70
2022-08-01T22:54:33.715Z,1.50
2022-08-01T22:57:07.091Z,1.70
2022-08-01T22:59:53.936Z,1.52
2022-08-01T23:02:28.497Z,1.38
2022-08-01T23:05:02.633Z,1.33
2022-08-01T23:07:34.029Z,1.88
2022-08-01T23:10:06.504Z,1.63
2022-08-01T23:12:34.308Z,1.33
2022-08-01T23:15:02.035Z,1.20
2022-08-01T23:17:31.699Z,1.23
2022-08-01T23:20:06.211Z,1.25
2022-08-01T23:22:35.574Z,1.40
2022-08-01T23:25:06.784Z,1.58
2022-08-01T23:28:03.285Z,1.77
2022-08-01T23:30:27.360Z,1.67
2022-08-01T23:32:55.433Z,1.40
2022-08-01T23:35:23.686Z,1.80
2022-08-01T23:37:51.680Z,1.25
2022-08-01T23:40:19.952Z,1.23
2022-08-01T23:42:47.322Z,1.23
2022-08-01T23:45:14.800Z,1.25
2022-08-01T23:47:43.025Z,1.33
2022-08-01T23:50:11.475Z,0.90
2022-08-01T23:52:49.741Z,1.08
2022-08-01T23:55:19.875Z,0.90
2022-08-01T23:57:58.204Z,0.93
